createdAt,value
2018-08-30T00:00:28.887Z,99274.00
2018-08-30T00:02:33.358Z,99278.00
2018-08-30T00:04:37.800Z,99276.00
2018-08-30T00:06:42.291Z,99287.00
2018-08-30T00:08:47.634Z,99291.00
2018-08-30T00:10:52.055Z,99295.00
2018-08-30T00:12:56.511Z,99307.00
2018-08-30T00:15:00.902Z,99311.00
2018-08-30T00:17:05.379Z,99320.00
2018-08-30T00:19:09.814Z,99324.00
2018-08-30T00:21:14.424Z,99320.00
2018-08-30T00:23:18.807Z,99321.00
2018-08-30T00:25:23.286Z,99335.00
2018-08-30T00:27:27.834Z,99333.00
2018-08-30T00:29:32.229Z,99340.00
2018-08-30T00:31:36.659Z,99340.00
2018-08-30T00:33:41.073Z,99340.00
2018-08-30T00:35:45.510Z,99340.00
2018-08-30T00:37:49.930Z,99341.00
2018-08-30T00:39:54.333Z,99357.00
2018-08-30T00:41:58.782Z,99356.00
2018-08-30T00:44:03.226Z,99369.00
2018-08-30T00:46:08.493Z,99370.00
2018-08-30T00:48:12.911Z,99365.00
2018-08-30T00:50:17.730Z,99373.00
2018-08-30T00:52:22.160Z,99374.00
2018-08-30T00:54:26.615Z,99382.00
2018-08-30T00:56:31.043Z,99383.00
2018-08-30T00:58:35.495Z,99383.00
2018-08-30T01:00:42.842Z,99391.00
2018-08-30T01:02:48.114Z,99401.00
2018-08-30T01:04:55.278Z,99399.00
2018-08-30T01:07:03.630Z,99405.00
2018-08-30T01:09:11.074Z,99418.00
2018-08-30T01:11:18.751Z,99428.00
2018-08-30T01:13:25.114Z,99425.00
2018-08-30T01:15:30.743Z,99433.00
2018-08-30T01:17:36.558Z,99435.00
2018-08-30T01:19:43.126Z,99441.00
2018-08-30T01:21:50.941Z,99435.00
2018-08-30T01:23:58.462Z,99444.00
2018-08-30T01:26:04.266Z,99446.00
2018-08-30T01:28:11.609Z,99451.00
2018-08-30T01:30:19.335Z,99454.00
2018-08-30T01:32:25.059Z,99464.00
2018-08-30T01:34:31.656Z,99455.00
2018-08-30T01:36:36.086Z,99457.00
2018-08-30T01:38:42.582Z,99467.00
2018-08-30T01:40:51.041Z,99463.00
2018-08-30T01:42:58.818Z,99458.00
2018-08-30T01:45:05.144Z,99458.00
2018-08-30T01:47:13.251Z,99461.00
2018-08-30T01:49:18.949Z,99456.00
2018-08-30T01:51:25.385Z,99456.00
2018-08-30T01:53:31.941Z,99460.00
2018-08-30T01:55:38.399Z,99466.00
2018-08-30T01:57:45.491Z,99469.00
2018-08-30T01:59:51.233Z,99470.00
2018-08-30T02:01:55.826Z,99475.00
2018-08-30T02:04:00.334Z,99472.00
2018-08-30T02:06:04.795Z,99474.00
2018-08-30T02:08:11.823Z,99472.00
2018-08-30T02:10:17.803Z,99479.00
2018-08-30T02:12:24.232Z,99471.00
2018-08-30T02:14:31.159Z,99470.00
2018-08-30T02:16:37.615Z,99471.00
2018-08-30T02:18:43.243Z,99470.00
2018-08-30T02:20:48.817Z,99473.00
2018-08-30T02:22:57.046Z,99479.00
2018-08-30T02:25:02.633Z,99488.00
2018-08-30T02:27:07.443Z,99478.00
2018-08-30T02:29:11.887Z,99482.00
2018-08-30T02:31:16.319Z,99492.00
2018-08-30T02:33:24.696Z,99488.00
2018-08-30T02:35:30.101Z,99493.00
2018-08-30T02:37:34.533Z,99492.00
2018-08-30T02:39:38.974Z,99498.00
2018-08-30T02:41:43.416Z,99494.00
2018-08-30T02:43:48.958Z,99503.00
2018-08-30T02:45:53.397Z,99499.00
2018-08-30T02:47:57.837Z,99500.00
2018-08-30T02:50:02.342Z,99506.00
2018-08-30T02:52:06.831Z,99501.00
2018-08-30T02:54:11.307Z,99503.00
2018-08-30T02:56:15.839Z,99500.00
2018-08-30T02:58:20.330Z,99505.00
2018-08-30T03:00:24.770Z,99502.00
2018-08-30T03:02:29.375Z,99505.00
2018-08-30T03:04:33.812Z,99508.00
2018-08-30T03:06:38.543Z,99506.00
2018-08-30T03:08:43.011Z,99511.00
2018-08-30T03:10:47.459Z,99505.00
2018-08-30T03:12:51.894Z,99508.00
2018-08-30T03:15:09.102Z,99508.00
2018-08-30T03:17:13.541Z,99512.00
2018-08-30T03:19:18.027Z,99520.00
2018-08-30T03:21:22.459Z,99514.00
2018-08-30T03:23:26.963Z,99522.00
2018-08-30T03:25:31.405Z,99523.00
2018-08-30T03:27:35.964Z,99527.00
2018-08-30T03:29:40.437Z,99526.00
2018-08-30T03:31:44.858Z,99524.00
2018-08-30T03:33:49.294Z,99530.00
2018-08-30T03:35:53.816Z,99526.00
2018-08-30T03:37:58.246Z,99532.00
2018-08-30T03:40:02.664Z,99532.00
2018-08-30T03:42:07.332Z,99527.00
2018-08-30T03:44:11.794Z,99536.00
2018-08-30T03:46:16.212Z,99535.00
2018-08-30T03:48:20.675Z,99538.00
2018-08-30T03:50:25.093Z,99548.00
2018-08-30T03:52:29.527Z,99542.00
2018-08-30T03:54:34.047Z,99550.00
2018-08-30T03:56:38.447Z,99550.00
2018-08-30T03:58:42.871Z,99554.00
2018-08-30T04:00:50.017Z,99547.00
2018-08-30T04:02:55.144Z,99556.00
2018-08-30T04:05:01.523Z,99549.00
2018-08-30T04:07:08.393Z,99553.00
2018-08-30T04:09:14.982Z,99557.00
2018-08-30T04:11:21.820Z,99555.00
2018-08-30T04:13:29.072Z,99565.00
2018-08-30T04:15:36.472Z,99565.00
2018-08-30T04:17:43.211Z,99567.00
2018-08-30T04:19:47.802Z,99569.00
2018-08-30T04:21:52.433Z,99561.00
2018-08-30T04:23:56.907Z,99562.00
2018-08-30T04:26:01.404Z,99565.00
2018-08-30T04:28:06.002Z,99563.00
2018-08-30T04:30:10.771Z,99569.00
2018-08-30T04:32:15.190Z,99562.00
2018-08-30T04:34:19.610Z,99561.00
2018-08-30T04:36:24.402Z,99562.00
2018-08-30T04:38:29.823Z,99560.00
2018-08-30T04:40:34.474Z,99565.00
2018-08-30T04:42:39.004Z,99565.00
2018-08-30T04:44:43.412Z,99567.00
2018-08-30T04:46:47.832Z,99563.00
2018-08-30T04:48:52.310Z,99570.00
2018-08-30T04:50:56.708Z,99571.00
2018-08-30T04:53:01.264Z,99572.00
2018-08-30T04:55:05.835Z,99581.00
2018-08-30T04:57:10.247Z,99579.00
2018-08-30T04:59:14.683Z,99587.00
2018-08-30T05:01:19.128Z,99586.00
2018-08-30T05:03:23.594Z,99593.00
2018-08-30T05:05:28.151Z,99593.00
2018-08-30T05:07:32.588Z,99593.00
2018-08-30T05:09:37.099Z,99587.00
2018-08-30T05:11:42.161Z,99601.00
2018-08-30T05:13:46.609Z,99600.00
2018-08-30T05:15:51.335Z,99608.00
2018-08-30T05:17:55.806Z,99604.00
2018-08-30T05:20:00.240Z,99607.00
2018-08-30T05:22:04.724Z,99607.00
2018-08-30T05:24:10.298Z,99607.00
2018-08-30T05:26:14.703Z,99609.00
2018-08-30T05:28:19.155Z,99615.00
2018-08-30T05:30:23.639Z,99615.00
2018-08-30T05:32:28.054Z,99624.00
2018-08-30T05:34:32.476Z,99615.00
2018-08-30T05:36:36.891Z,99622.00
2018-08-30T05:38:41.426Z,99624.00
2018-08-30T05:40:45.992Z,99623.00
2018-08-30T05:42:50.426Z,99627.00
2018-08-30T05:44:54.875Z,99629.00
2018-08-30T05:46:59.342Z,99629.00
2018-08-30T05:49:03.802Z,99632.00
2018-08-30T05:51:08.635Z,99636.00
2018-08-30T05:53:13.056Z,99638.00
2018-08-30T05:55:17.571Z,99645.00
2018-08-30T05:57:21.998Z,99642.00
2018-08-30T05:59:26.476Z,99649.00
2018-08-30T06:01:31.648Z,99645.00
2018-08-30T06:03:36.051Z,99638.00
2018-08-30T06:05:40.536Z,99643.00
2018-08-30T06:07:44.962Z,99647.00
2018-08-30T06:09:49.479Z,99650.00
2018-08-30T06:11:54.086Z,99650.00
2018-08-30T06:13:58.548Z,99651.00
2018-08-30T06:16:03.109Z,99652.00
2018-08-30T06:18:07.616Z,99655.00
2018-08-30T06:20:12.118Z,99655.00
2018-08-30T06:22:16.630Z,99657.00
2018-08-30T06:24:21.084Z,99657.00
2018-08-30T06:26:25.551Z,99652.00
2018-08-30T06:28:30.048Z,99655.00
2018-08-30T06:30:34.542Z,99657.00
2018-08-30T06:32:39.062Z,99660.00
2018-08-30T06:34:43.490Z,99659.00
2018-08-30T06:36:48.012Z,99663.00
2018-08-30T06:38:53.328Z,99670.00
2018-08-30T06:40:57.858Z,99669.00
2018-08-30T06:43:02.446Z,99671.00
2018-08-30T06:45:07.480Z,99673.00
2018-08-30T06:47:11.987Z,99675.00
2018-08-30T06:49:16.483Z,99672.00
2018-08-30T06:51:20.949Z,99680.00
2018-08-30T06:53:25.371Z,99683.00
2018-08-30T06:55:29.825Z,99680.00
2018-08-30T06:57:35.088Z,99691.00
2018-08-30T06:59:39.547Z,99690.00
2018-08-30T07:01:44.032Z,99693.00
2018-08-30T07:03:48.454Z,99694.00
2018-08-30T07:05:52.890Z,99691.00
2018-08-30T07:07:57.339Z,99692.00
2018-08-30T07:10:01.800Z,99697.00
2018-08-30T07:12:06.691Z,99700.00
2018-08-30T07:14:11.116Z,99702.00
2018-08-30T07:16:15.631Z,99710.00
2018-08-30T07:18:20.056Z,99700.00
2018-08-30T07:20:24.633Z,99707.00
2018-08-30T07:22:30.174Z,99702.00
2018-08-30T07:24:36.638Z,99713.00
2018-08-30T07:26:41.046Z,99713.00
2018-08-30T07:28:45.470Z,99716.00
2018-08-30T07:30:49.957Z,99719.00
2018-08-30T07:32:55.521Z,99724.00
2018-08-30T07:35:00.106Z,99726.00
2018-08-30T07:37:04.580Z,99729.00
2018-08-30T07:39:11.834Z,99738.00
2018-08-30T07:41:16.265Z,99740.00
2018-08-30T07:43:20.847Z,99736.00
2018-08-30T07:45:25.554Z,99746.00
2018-08-30T07:47:30.128Z,99742.00
2018-08-30T07:49:35.547Z,99741.00
2018-08-30T07:51:40.057Z,99746.00
2018-08-30T07:53:44.499Z,99752.00
2018-08-30T07:55:49.070Z,99756.00
2018-08-30T07:57:53.515Z,99759.00
2018-08-30T07:59:58.020Z,99762.00
2018-08-30T08:02:02.893Z,99758.00
2018-08-30T08:04:07.895Z,99764.00
2018-08-30T08:06:12.388Z,99765.00
2018-08-30T08:08:23.467Z,99762.00
2018-08-30T08:10:27.931Z,99771.00
2018-08-30T08:12:32.525Z,99781.00
2018-08-30T08:14:36.954Z,99778.00
2018-08-30T08:16:41.463Z,99776.00
2018-08-30T08:18:45.895Z,99774.00
2018-08-30T08:20:50.623Z,99775.00
2018-08-30T08:22:55.908Z,99775.00
2018-08-30T08:25:00.332Z,99768.00
2018-08-30T08:27:04.828Z,99785.00
2018-08-30T08:29:09.278Z,99794.00
2018-08-30T08:31:13.779Z,99784.00
2018-08-30T08:33:18.240Z,99784.00
2018-08-30T08:35:22.789Z,99783.00
2018-08-30T08:37:27.238Z,99783.00
2018-08-30T08:39:31.735Z,99786.00
2018-08-30T08:41:36.295Z,99788.00
2018-08-30T08:43:40.743Z,99791.00
2018-08-30T08:45:45.210Z,99787.00
2018-08-30T08:47:49.761Z,99790.00
2018-08-30T08:49:54.279Z,99798.00
2018-08-30T08:51:58.769Z,99799.00
2018-08-30T08:54:03.465Z,99799.00
2018-08-30T08:56:07.922Z,99796.00
2018-08-30T08:58:12.800Z,99795.00
2018-08-30T09:00:17.248Z,99791.00
2018-08-30T09:02:21.722Z,99803.00
2018-08-30T09:04:26.154Z,99797.00
2018-08-30T09:06:30.760Z,99805.00
2018-08-30T09:08:36.137Z,99810.00
2018-08-30T09:10:40.554Z,99820.00
2018-08-30T09:12:45.109Z,99804.00
2018-08-30T09:14:51.051Z,99809.00
2018-08-30T09:16:56.246Z,99809.00
2018-08-30T09:19:00.773Z,99824.00
2018-08-30T09:21:06.179Z,99808.00
2018-08-30T09:23:10.681Z,99821.00
2018-08-30T09:25:16.222Z,99812.00
2018-08-30T09:27:20.682Z,99822.00
2018-08-30T09:29:25.275Z,99821.00
2018-08-30T09:31:29.710Z,99821.00
2018-08-30T09:33:34.215Z,99826.00
2018-08-30T09:35:38.659Z,99821.00
2018-08-30T09:37:43.143Z,99822.00
2018-08-30T09:39:47.602Z,99822.00
2018-08-30T09:41:52.106Z,99818.00
2018-08-30T09:43:56.531Z,99810.00
2018-08-30T09:46:00.999Z,99805.00
2018-08-30T09:48:05.764Z,99810.00
2018-08-30T09:50:10.312Z,99809.00
2018-08-30T09:52:14.822Z,99811.00
2018-08-30T09:54:19.324Z,99813.00
2018-08-30T09:56:23.994Z,99810.00
2018-08-30T09:58:28.423Z,99810.00
2018-08-30T10:00:38.257Z,99821.00
2018-08-30T10:02:48.006Z,99821.00
2018-08-30T10:04:52.462Z,99821.00
2018-08-30T10:06:56.990Z,99819.00
2018-08-30T10:09:01.447Z,99823.00
2018-08-30T10:11:06.139Z,99820.00
2018-08-30T10:13:10.949Z,99830.00
2018-08-30T10:15:16.626Z,99822.00
2018-08-30T10:17:21.322Z,99820.00
2018-08-30T10:19:25.812Z,99813.00
2018-08-30T10:21:30.242Z,99818.00
2018-08-30T10:23:34.674Z,99812.00
2018-08-30T10:25:39.119Z,99813.00
2018-08-30T10:27:43.606Z,99821.00
2018-08-30T10:29:48.121Z,99821.00
2018-08-30T10:31:52.535Z,99820.00
2018-08-30T10:33:56.959Z,99821.00
2018-08-30T10:36:01.407Z,99826.00
2018-08-30T10:38:05.903Z,99833.00
2018-08-30T10:40:10.302Z,99829.00
2018-08-30T10:42:14.736Z,99824.00
2018-08-30T10:44:19.252Z,99824.00
2018-08-30T10:46:24.025Z,99833.00
2018-08-30T10:48:28.630Z,99829.00
2018-08-30T10:50:33.048Z,99837.00
2018-08-30T10:52:37.543Z,99833.00
2018-08-30T10:54:41.960Z,99838.00
2018-08-30T10:56:46.810Z,99828.00
2018-08-30T10:58:51.509Z,99841.00
2018-08-30T11:00:57.183Z,99826.00
2018-08-30T11:03:01.730Z,99839.00
2018-08-30T11:05:06.402Z,99836.00
2018-08-30T11:07:11.370Z,99827.00
2018-08-30T11:09:15.921Z,99823.00
2018-08-30T11:11:20.560Z,99821.00
2018-08-30T11:13:25.173Z,99827.00
2018-08-30T11:15:29.856Z,99826.00
2018-08-30T11:17:34.262Z,99827.00
2018-08-30T11:19:38.786Z,99832.00
2018-08-30T11:21:43.227Z,99825.00
2018-08-30T11:23:47.701Z,99829.00
2018-08-30T11:25:52.147Z,99825.00
2018-08-30T11:27:57.353Z,99825.00
2018-08-30T11:30:01.820Z,99831.00
2018-08-30T11:32:07.846Z,99830.00
2018-08-30T11:34:12.301Z,99832.00
2018-08-30T11:36:16.699Z,99837.00
2018-08-30T11:38:21.258Z,99840.00
2018-08-30T11:40:25.675Z,99843.00
2018-08-30T11:42:30.175Z,99847.00
2018-08-30T11:44:34.678Z,99841.00
2018-08-30T11:46:39.111Z,99849.00
2018-08-30T11:48:43.635Z,99856.00
2018-08-30T11:50:48.046Z,99845.00
2018-08-30T11:52:52.530Z,99846.00
2018-08-30T11:54:57.071Z,99844.00
2018-08-30T11:57:01.507Z,99847.00
2018-08-30T11:59:06.048Z,99852.00
2018-08-30T12:01:10.475Z,99858.00
2018-08-30T12:03:15.161Z,99856.00
2018-08-30T12:05:19.772Z,99863.00
2018-08-30T12:07:24.496Z,99863.00
2018-08-30T12:09:29.499Z,99863.00
2018-08-30T12:11:35.583Z,99862.00
2018-08-30T12:13:40.842Z,99866.00
2018-08-30T12:15:45.339Z,99868.00
2018-08-30T12:17:51.176Z,99865.00
2018-08-30T12:19:55.664Z,99873.00
2018-08-30T12:22:00.300Z,99866.00
2018-08-30T12:24:04.771Z,99873.00
2018-08-30T12:26:09.250Z,99881.00
2018-08-30T12:28:14.139Z,99886.00
2018-08-30T12:30:18.739Z,99874.00
2018-08-30T12:32:23.188Z,99877.00
2018-08-30T12:34:27.972Z,99880.00
2018-08-30T12:36:32.394Z,99865.00
2018-08-30T12:38:36.915Z,99864.00
2018-08-30T12:40:41.516Z,99868.00
2018-08-30T12:42:45.945Z,99871.00
2018-08-30T12:44:50.436Z,99869.00
2018-08-30T12:46:55.186Z,99870.00
2018-08-30T12:49:00.451Z,99873.00
2018-08-30T12:51:05.653Z,99875.00
2018-08-30T12:53:10.374Z,99882.00
2018-08-30T12:55:14.899Z,99884.00
2018-08-30T12:57:19.415Z,99881.00
2018-08-30T12:59:29.322Z,99887.00
2018-08-30T13:01:33.978Z,99893.00
2018-08-30T13:03:39.579Z,99892.00
2018-08-30T13:05:44.715Z,99893.00
2018-08-30T13:07:49.300Z,99883.00
2018-08-30T13:09:54.567Z,99889.00
2018-08-30T13:12:00.291Z,99889.00
2018-08-30T13:14:04.941Z,99890.00
2018-08-30T13:16:09.715Z,99886.00
2018-08-30T13:18:14.614Z,99882.00
2018-08-30T13:20:19.569Z,99876.00
2018-08-30T13:22:24.190Z,99878.00
2018-08-30T13:24:28.659Z,99881.00
2018-08-30T13:26:36.509Z,99875.00
2018-08-30T13:28:41.737Z,99878.00
2018-08-30T13:30:46.265Z,99883.00
2018-08-30T13:32:50.798Z,99873.00
2018-08-30T13:34:55.393Z,99875.00
2018-08-30T13:36:59.926Z,99877.00
2018-08-30T13:39:05.717Z,99880.00
2018-08-30T13:41:10.346Z,99882.00
2018-08-30T13:43:15.142Z,99874.00
2018-08-30T13:45:19.704Z,99874.00
2018-08-30T13:47:24.333Z,99881.00
2018-08-30T13:49:28.953Z,99885.00
2018-08-30T13:51:33.988Z,99876.00
2018-08-30T13:53:38.530Z,99884.00
2018-08-30T13:55:43.415Z,99877.00
2018-08-30T13:57:48.305Z,99887.00
2018-08-30T13:59:52.792Z,99884.00
2018-08-30T14:01:56.786Z,99888.00
2018-08-30T14:04:01.786Z,99892.00
2018-08-30T14:06:06.200Z,99887.00
2018-08-30T14:08:10.771Z,99890.00
2018-08-30T14:10:15.631Z,99885.00
2018-08-30T14:12:19.955Z,99878.00
2018-08-30T14:14:24.608Z,99885.00
2018-08-30T14:16:28.755Z,99882.00
2018-08-30T14:18:33.165Z,99883.00
2018-08-30T14:20:37.700Z,99883.00
2018-08-30T14:22:42.182Z,99887.00
2018-08-30T14:24:46.642Z,99883.00
2018-08-30T14:26:51.213Z,99892.00
2018-08-30T14:28:55.654Z,99889.00
2018-08-30T14:31:00.161Z,99896.00
2018-08-30T14:33:05.833Z,99905.00
2018-08-30T14:35:10.226Z,99902.00
2018-08-30T14:37:14.949Z,99900.00
2018-08-30T14:39:19.518Z,99902.00
2018-08-30T14:41:23.845Z,99894.00
2018-08-30T14:43:28.734Z,99898.00
2018-08-30T14:45:33.090Z,99903.00
2018-08-30T14:47:37.622Z,99903.00
2018-08-30T14:49:42.065Z,99908.00
2018-08-30T14:51:46.510Z,99905.00
2018-08-30T14:53:52.182Z,99905.00
2018-08-30T14:55:56.826Z,99901.00
2018-08-30T14:58:01.246Z,99909.00
2018-08-30T15:00:06.209Z,99895.00
2018-08-30T15:02:10.638Z,99900.00
2018-08-30T15:04:15.219Z,99909.00
2018-08-30T15:06:19.760Z,99907.00
2018-08-30T15:08:24.221Z,99909.00
2018-08-30T15:10:28.642Z,99911.00
2018-08-30T15:12:33.487Z,99907.00
2018-08-30T15:14:37.938Z,99910.00
2018-08-30T15:16:42.373Z,99914.00
2018-08-30T15:18:46.855Z,99903.00
2018-08-30T15:20:51.583Z,99904.00
2018-08-30T15:22:56.669Z,99915.00
2018-08-30T15:25:01.267Z,99907.00
2018-08-30T15:27:06.332Z,99916.00
2018-08-30T15:29:10.682Z,99920.00
2018-08-30T15:31:15.776Z,99924.00
2018-08-30T15:33:20.654Z,99917.00
2018-08-30T15:35:26.304Z,99925.00
2018-08-30T15:37:30.672Z,99926.00
2018-08-30T15:39:35.187Z,99925.00
2018-08-30T15:41:39.724Z,99919.00
2018-08-30T15:43:44.181Z,99925.00
2018-08-30T15:45:48.963Z,99932.00
2018-08-30T15:47:53.406Z,99929.00
2018-08-30T15:49:57.869Z,99926.00
2018-08-30T15:52:02.330Z,99924.00
2018-08-30T15:54:07.715Z,99930.00
2018-08-30T15:56:12.565Z,99939.00
2018-08-30T15:58:23.153Z,99932.00
2018-08-30T16:00:28.011Z,99932.00
2018-08-30T16:02:32.622Z,99940.00
2018-08-30T16:04:37.774Z,99938.00
2018-08-30T16:06:42.560Z,99932.00
2018-08-30T16:08:47.391Z,99928.00
2018-08-30T16:10:52.465Z,99926.00
2018-08-30T16:12:57.032Z,99925.00
2018-08-30T16:15:01.364Z,99921.00
2018-08-30T16:17:05.883Z,99935.00
2018-08-30T16:19:10.593Z,99930.00
2018-08-30T16:21:16.048Z,99927.00
2018-08-30T16:23:29.078Z,99920.00
2018-08-30T16:25:33.771Z,99920.00
2018-08-30T16:27:38.329Z,99926.00
2018-08-30T16:29:43.045Z,99922.00
2018-08-30T16:31:47.547Z,99920.00
2018-08-30T16:33:52.023Z,99934.00
2018-08-30T16:35:56.553Z,99928.00
2018-08-30T16:38:00.923Z,99922.00
2018-08-30T16:40:05.476Z,99929.00
2018-08-30T16:42:09.918Z,99924.00
2018-08-30T16:44:14.364Z,99929.00
2018-08-30T16:46:19.791Z,99930.00
2018-08-30T16:48:24.460Z,99938.00
2018-08-30T16:50:28.911Z,99930.00
2018-08-30T16:52:33.392Z,99934.00
2018-08-30T16:54:37.942Z,99921.00
2018-08-30T16:56:42.461Z,99931.00
2018-08-30T16:58:47.081Z,99930.00
2018-08-30T17:00:51.753Z,99935.00
2018-08-30T17:02:56.966Z,99927.00
2018-08-30T17:05:02.075Z,99923.00
2018-08-30T17:07:06.799Z,99922.00
2018-08-30T17:09:12.115Z,99933.00
2018-08-30T17:11:16.543Z,99928.00
2018-08-30T17:13:21.303Z,99925.00
2018-08-30T17:15:26.031Z,99928.00
2018-08-30T17:17:30.647Z,99924.00
2018-08-30T17:19:35.214Z,99932.00
2018-08-30T17:21:40.051Z,99924.00
2018-08-30T17:23:44.563Z,99925.00
2018-08-30T17:25:49.008Z,99929.00
2018-08-30T17:27:54.318Z,99930.00
2018-08-30T17:29:58.795Z,99923.00
2018-08-30T17:32:03.530Z,99926.00
2018-08-30T17:34:07.991Z,99918.00
2018-08-30T17:36:12.860Z,99920.00
2018-08-30T17:38:17.357Z,99919.00
2018-08-30T17:40:21.814Z,99926.00
2018-08-30T17:42:26.739Z,99924.00
2018-08-30T17:44:31.546Z,99919.00
2018-08-30T17:46:36.003Z,99918.00
2018-08-30T17:48:40.767Z,99929.00
2018-08-30T17:50:45.410Z,99920.00
2018-08-30T17:52:49.864Z,99928.00
2018-08-30T17:54:54.374Z,99935.00
2018-08-30T17:56:58.924Z,99939.00
2018-08-30T17:59:04.046Z,99931.00
2018-08-30T18:01:08.949Z,99935.00
2018-08-30T18:03:13.328Z,99931.00
2018-08-30T18:05:18.007Z,99937.00
2018-08-30T18:07:22.462Z,99942.00
2018-08-30T18:09:26.980Z,99941.00
2018-08-30T18:11:31.519Z,99950.00
2018-08-30T18:13:37.456Z,99948.00
2018-08-30T18:15:43.162Z,99942.00
2018-08-30T18:17:47.826Z,99944.00
2018-08-30T18:19:52.560Z,99945.00
2018-08-30T18:21:57.152Z,99945.00
2018-08-30T18:24:01.550Z,99949.00
2018-08-30T18:26:06.071Z,99952.00
2018-08-30T18:28:10.531Z,99957.00
2018-08-30T18:30:14.931Z,99956.00
2018-08-30T18:32:22.000Z,99964.00
2018-08-30T18:34:28.143Z,99964.00
2018-08-30T18:36:35.004Z,99962.00
2018-08-30T18:38:39.451Z,99971.00
2018-08-30T18:40:44.492Z,99972.00
2018-08-30T18:42:49.060Z,99968.00
2018-08-30T18:44:53.518Z,99976.00
2018-08-30T18:46:59.316Z,99983.00
2018-08-30T18:49:03.723Z,99979.00
2018-08-30T18:51:08.134Z,99984.00
2018-08-30T18:53:12.922Z,99985.00
2018-08-30T18:55:17.351Z,99985.00
2018-08-30T18:57:21.814Z,99988.00
2018-08-30T18:59:26.252Z,99989.00
2018-08-30T19:01:30.703Z,99995.00
2018-08-30T19:03:35.371Z,99999.00
2018-08-30T19:05:39.787Z,99995.00
2018-08-30T19:07:44.261Z,99997.00
2018-08-30T19:09:48.950Z,100002.00
2018-08-30T19:11:53.646Z,100007.00
2018-08-30T19:13:59.212Z,100007.00
2018-08-30T19:16:08.916Z,100005.00
2018-08-30T19:18:19.438Z,99999.00
2018-08-30T19:20:24.325Z,100005.00
2018-08-30T19:22:28.791Z,100003.00
2018-08-30T19:24:39.136Z,100001.00
2018-08-30T19:26:43.551Z,99998.00
2018-08-30T19:28:47.986Z,100003.00
2018-08-30T19:30:53.430Z,100009.00
2018-08-30T19:32:58.991Z,100000.00
2018-08-30T19:35:08.710Z,100003.00
2018-08-30T19:37:13.974Z,100003.00
2018-08-30T19:39:19.616Z,100007.00
2018-08-30T19:41:24.246Z,100003.00
2018-08-30T19:43:29.575Z,100002.00
2018-08-30T19:45:33.982Z,100003.00
2018-08-30T19:47:39.547Z,100009.00
2018-08-30T19:49:45.751Z,100008.00
2018-08-30T19:51:50.224Z,100002.00
2018-08-30T19:53:54.880Z,100006.00
2018-08-30T19:56:00.095Z,100002.00
2018-08-30T19:58:04.719Z,100001.00
2018-08-30T20:00:09.307Z,100005.00
2018-08-30T20:02:13.736Z,100001.00
2018-08-30T20:04:18.240Z,100005.00
2018-08-30T20:06:22.958Z,100001.00
2018-08-30T20:08:27.400Z,100007.00
2018-08-30T20:10:31.874Z,100009.00
2018-08-30T20:12:36.603Z,100011.00
2018-08-30T20:14:41.051Z,100006.00
2018-08-30T20:16:45.775Z,100010.00
2018-08-30T20:18:50.222Z,100012.00
2018-08-30T20:20:54.701Z,100010.00
2018-08-30T20:23:00.001Z,100009.00
2018-08-30T20:25:05.547Z,100022.00
2018-08-30T20:27:10.641Z,100019.00
2018-08-30T20:29:15.103Z,100017.00
2018-08-30T20:31:20.114Z,100017.00
2018-08-30T20:33:24.558Z,100022.00
2018-08-30T20:35:28.985Z,100023.00
2018-08-30T20:37:33.571Z,100026.00
2018-08-30T20:39:38.187Z,100023.00
2018-08-30T20:41:42.658Z,100026.00
2018-08-30T20:43:47.317Z,100025.00
2018-08-30T20:45:52.218Z,100014.00
2018-08-30T20:47:56.678Z,100016.00
2018-08-30T20:50:01.123Z,100014.00
2018-08-30T20:52:06.002Z,100012.00
2018-08-30T20:54:11.706Z,100015.00
2018-08-30T20:56:16.213Z,100009.00
2018-08-30T20:58:21.230Z,100018.00
2018-08-30T21:00:25.791Z,100021.00
2018-08-30T21:02:30.423Z,100020.00
2018-08-30T21:04:34.871Z,100018.00
2018-08-30T21:06:40.974Z,100009.00
2018-08-30T21:08:46.445Z,100013.00
2018-08-30T21:10:50.844Z,100004.00
2018-08-30T21:12:55.307Z,100014.00
2018-08-30T21:15:00.807Z,100009.00
2018-08-30T21:17:05.421Z,100017.00
2018-08-30T21:19:09.909Z,100010.00
2018-08-30T21:21:14.642Z,100009.00
2018-08-30T21:23:19.338Z,100006.00
2018-08-30T21:25:23.763Z,100007.00
2018-08-30T21:27:28.272Z,100011.00
2018-08-30T21:29:32.739Z,100018.00
2018-08-30T21:31:37.178Z,100008.00
2018-08-30T21:33:41.674Z,100006.00
2018-08-30T21:35:46.177Z,100002.00
2018-08-30T21:37:52.174Z,100001.00
2018-08-30T21:39:56.571Z,100007.00
2018-08-30T21:42:02.019Z,100013.00
2018-08-30T21:44:06.779Z,100018.00
2018-08-30T21:46:11.398Z,100015.00
2018-08-30T21:48:15.862Z,100018.00
2018-08-30T21:50:20.798Z,100024.00
2018-08-30T21:52:25.556Z,100022.00
2018-08-30T21:54:30.012Z,100020.00
2018-08-30T21:56:34.523Z,100011.00
2018-08-30T21:58:38.983Z,100020.00
2018-08-30T22:00:43.456Z,100020.00
2018-08-30T22:02:48.139Z,100021.00
2018-08-30T22:04:54.858Z,100014.00
2018-08-30T22:07:00.882Z,100017.00
2018-08-30T22:09:08.100Z,100018.00
2018-08-30T22:11:12.531Z,100016.00
2018-08-30T22:13:17.265Z,100020.00
2018-08-30T22:15:21.718Z,100025.00
2018-08-30T22:17:26.158Z,100026.00
2018-08-30T22:19:30.687Z,100028.00
2018-08-30T22:21:35.119Z,100038.00
2018-08-30T22:23:39.563Z,100039.00
2018-08-30T22:25:44.063Z,100038.00
2018-08-30T22:27:48.543Z,100032.00
2018-08-30T22:29:53.048Z,100037.00
2018-08-30T22:31:57.454Z,100033.00
2018-08-30T22:34:02.337Z,100044.00
2018-08-30T22:36:06.878Z,100043.00
2018-08-30T22:38:11.343Z,100034.00
2018-08-30T22:40:15.831Z,100043.00
2018-08-30T22:42:21.162Z,100048.00
2018-08-30T22:44:26.616Z,100048.00
2018-08-30T22:46:31.903Z,100049.00
2018-08-30T22:48:36.349Z,100041.00
2018-08-30T22:50:41.181Z,100039.00
2018-08-30T22:52:45.621Z,100037.00
2018-08-30T22:54:50.776Z,100044.00
2018-08-30T22:56:55.185Z,100035.00
2018-08-30T22:58:59.702Z,100028.00
2018-08-30T23:01:04.218Z,100037.00
2018-08-30T23:03:08.747Z,100031.00
2018-08-30T23:05:13.177Z,100030.00
2018-08-30T23:07:17.563Z,100031.00
2018-08-30T23:09:22.014Z,100034.00
2018-08-30T23:11:26.516Z,100037.00
2018-08-30T23:13:30.980Z,100030.00
2018-08-30T23:15:35.435Z,100033.00
2018-08-30T23:17:40.404Z,100022.00
2018-08-30T23:19:44.931Z,100029.00
2018-08-30T23:21:49.384Z,100018.00
2018-08-30T23:23:53.863Z,100023.00
2018-08-30T23:25:58.364Z,100033.00
2018-08-30T23:28:02.774Z,100020.00
2018-08-30T23:30:08.565Z,100024.00
2018-08-30T23:32:14.099Z,100025.00
2018-08-30T23:34:18.561Z,100020.00
2018-08-30T23:36:22.991Z,100021.00
2018-08-30T23:38:27.452Z,100024.00
2018-08-30T23:40:31.952Z,100017.00
2018-08-30T23:42:36.418Z,100018.00
2018-08-30T23:44:41.750Z,100015.00
2018-08-30T23:46:46.255Z,100023.00
2018-08-30T23:48:50.787Z,100016.00
2018-08-30T23:50:55.400Z,100021.00
2018-08-30T23:52:59.828Z,100022.00
2018-08-30T23:55:04.367Z,100015.00
2018-08-30T23:57:08.856Z,100016.00
2018-08-30T23:59:30.286Z,100026.00
